sensor_id;sensor_type;location;lat;lon;timestamp;temperature;humidity
14723;DHT22;7452;55.594;12.986;2023-02-15T00:01:45;4.40;99.90
14723;DHT22;7452;55.594;12.986;2023-02-15T00:04:19;4.40;99.90
14723;DHT22;7452;55.594;12.986;2023-02-15T00:06:48;4.30;99.90
14723;DHT22;7452;55.594;12.986;2023-02-15T00:09:15;4.30;99.90
14723;DHT22;7452;55.594;12.986;2023-02-15T00:11:42;4.30;99.90
14723;DHT22;7452;55.594;12.986;2023-02-15T00:14:18;4.20;99.90
14723;DHT22;7452;55.594;12.986;2023-02-15T00:16:48;4.30;99.90
14723;DHT22;7452;55.594;12.986;2023-02-15T00:19:19;4.30;99.90
14723;DHT22;7452;55.594;12.986;2023-02-15T00:21:49;4.30;99.90
14723;DHT22;7452;55.594;12.986;2023-02-15T00:24:17;4.30;99.90
14723;DHT22;7452;55.594;12.986;2023-02-15T00:26:46;4.40;99.90
14723;DHT22;7452;55.594;12.986;2023-02-15T00:29:15;4.40;99.90
14723;DHT22;7452;55.594;12.986;2023-02-15T00:31:43;4.40;99.90
14723;DHT22;7452;55.594;12.986;2023-02-15T00:34:12;4.40;99.90
14723;DHT22;7452;55.594;12.986;2023-02-15T00:36:40;4.40;99.90
14723;DHT22;7452;55.594;12.986;2023-02-15T00:39:09;4.40;99.90
14723;DHT22;7452;55.594;12.986;2023-02-15T00:41:37;4.40;99.90
14723;DHT22;7452;55.594;12.986;2023-02-15T00:44:04;4.40;99.90
14723;DHT22;7452;55.594;12.986;2023-02-15T00:46:33;4.40;99.90
14723;DHT22;7452;55.594;12.986;2023-02-15T00:49:00;4.40;99.90
14723;DHT22;7452;55.594;12.986;2023-02-15T00:51:29;4.40;99.90
14723;DHT22;7452;55.594;12.986;2023-02-15T00:53:58;4.40;99.90
14723;DHT22;7452;55.594;12.986;2023-02-15T00:56:30;4.40;99.90
14723;DHT22;7452;55.594;12.986;2023-02-15T00:58:58;4.40;99.90
14723;DHT22;7452;55.594;12.986;2023-02-15T01:01:25;4.40;99.90
14723;DHT22;7452;55.594;12.986;2023-02-15T01:03:52;4.40;99.90
14723;DHT22;7452;55.594;12.986;2023-02-15T01:06:20;4.40;99.90
14723;DHT22;7452;55.594;12.986;2023-02-15T01:08:47;4.50;99.90
14723;DHT22;7452;55.594;12.986;2023-02-15T01:11:16;4.40;99.90
14723;DHT22;7452;55.594;12.986;2023-02-15T01:13:51;4.40;99.90
14723;DHT22;7452;55.594;12.986;2023-02-15T01:16:18;4.40;99.90
14723;DHT22;7452;55.594;12.986;2023-02-15T01:18:45;4.40;99.90
14723;DHT22;7452;55.594;12.986;2023-02-15T01:21:14;4.40;99.90
14723;DHT22;7452;55.594;12.986;2023-02-15T01:23:41;4.50;99.90
14723;DHT22;7452;55.594;12.986;2023-02-15T01:26:09;4.50;99.90
14723;DHT22;7452;55.594;12.986;2023-02-15T01:28:36;4.50;99.90
14723;DHT22;7452;55.594;12.986;2023-02-15T01:31:09;4.60;99.90
14723;DHT22;7452;55.594;12.986;2023-02-15T01:33:37;4.50;99.90
14723;DHT22;7452;55.594;12.986;2023-02-15T01:36:04;4.50;99.90
14723;DHT22;7452;55.594;12.986;2023-02-15T01:38:32;4.50;99.90
14723;DHT22;7452;55.594;12.986;2023-02-15T01:41:06;4.60;99.90
14723;DHT22;7452;55.594;12.986;2023-02-15T01:43:55;4.50;99.90
14723;DHT22;7452;55.594;12.986;2023-02-15T01:46:28;4.50;99.90
14723;DHT22;7452;55.594;12.986;2023-02-15T01:49:02;4.50;99.90
14723;DHT22;7452;55.594;12.986;2023-02-15T01:51:31;4.60;99.90
14723;DHT22;7452;55.594;12.986;2023-02-15T01:54:02;4.50;99.90
14723;DHT22;7452;55.594;12.986;2023-02-15T01:56:34;4.60;99.90
14723;DHT22;7452;55.594;12.986;2023-02-15T01:59:06;4.60;99.90
14723;DHT22;7452;55.594;12.986;2023-02-15T02:01:35;4.60;99.90
14723;DHT22;7452;55.594;12.986;2023-02-15T02:04:10;4.60;99.90
14723;DHT22;7452;55.594;12.986;2023-02-15T02:06:40;4.60;99.90
14723;DHT22;7452;55.594;12.986;2023-02-15T02:09:07;4.50;99.90
14723;DHT22;7452;55.594;12.986;2023-02-15T02:11:36;4.50;99.90
14723;DHT22;7452;55.594;12.986;2023-02-15T02:14:05;4.60;99.90
14723;DHT22;7452;55.594;12.986;2023-02-15T02:16:41;4.50;99.90
14723;DHT22;7452;55.594;12.986;2023-02-15T02:20:02;4.60;99.90
14723;DHT22;7452;55.594;12.986;2023-02-15T02:25:47;4.60;99.90
14723;DHT22;7452;55.594;12.986;2023-02-15T02:28:42;4.60;99.90
14723;DHT22;7452;55.594;12.986;2023-02-15T02:31:39;4.60;99.90
14723;DHT22;7452;55.594;12.986;2023-02-15T02:34:16;4.70;99.90
14723;DHT22;7452;55.594;12.986;2023-02-15T02:36:49;4.60;99.90
14723;DHT22;7452;55.594;12.986;2023-02-15T02:39:28;4.60;99.90
14723;DHT22;7452;55.594;12.986;2023-02-15T02:42:04;4.70;99.90
14723;DHT22;7452;55.594;12.986;2023-02-15T02:44:39;4.60;99.90
14723;DHT22;7452;55.594;12.986;2023-02-15T02:47:13;4.60;99.90
14723;DHT22;7452;55.594;12.986;2023-02-15T02:49:46;4.60;99.90
14723;DHT22;7452;55.594;12.986;2023-02-15T02:52:45;4.70;99.90
14723;DHT22;7452;55.594;12.986;2023-02-15T02:55:18;4.60;99.90
14723;DHT22;7452;55.594;12.986;2023-02-15T02:57:53;4.70;99.90
14723;DHT22;7452;55.594;12.986;2023-02-15T03:00:21;4.70;99.90
14723;DHT22;7452;55.594;12.986;2023-02-15T03:02:54;4.70;99.90
14723;DHT22;7452;55.594;12.986;2023-02-15T03:05:27;4.70;99.90
14723;DHT22;7452;55.594;12.986;2023-02-15T03:07:56;4.70;99.90
14723;DHT22;7452;55.594;12.986;2023-02-15T03:10:27;4.70;99.90
14723;DHT22;7452;55.594;12.986;2023-02-15T03:12:55;4.70;99.90
14723;DHT22;7452;55.594;12.986;2023-02-15T03:15:25;4.60;99.90
14723;DHT22;7452;55.594;12.986;2023-02-15T03:18:14;4.60;99.90
14723;DHT22;7452;55.594;12.986;2023-02-15T03:20:44;4.60;99.90
14723;DHT22;7452;55.594;12.986;2023-02-15T03:23:14;4.60;99.90
14723;DHT22;7452;55.594;12.986;2023-02-15T03:25:50;4.60;99.90
14723;DHT22;7452;55.594;12.986;2023-02-15T03:28:20;4.70;99.90
14723;DHT22;7452;55.594;12.986;2023-02-15T03:30:53;4.60;99.90
14723;DHT22;7452;55.594;12.986;2023-02-15T03:33:23;4.60;99.90
14723;DHT22;7452;55.594;12.986;2023-02-15T03:35:54;4.60;99.90
14723;DHT22;7452;55.594;12.986;2023-02-15T03:38:30;4.60;99.90
14723;DHT22;7452;55.594;12.986;2023-02-15T03:41:04;4.70;99.90
14723;DHT22;7452;55.594;12.986;2023-02-15T03:43:45;4.60;99.90
14723;DHT22;7452;55.594;12.986;2023-02-15T03:46:19;4.60;99.90
14723;DHT22;7452;55.594;12.986;2023-02-15T03:48:53;4.60;99.90
14723;DHT22;7452;55.594;12.986;2023-02-15T03:51:26;4.60;99.90
14723;DHT22;7452;55.594;12.986;2023-02-15T03:54:03;4.60;99.90
14723;DHT22;7452;55.594;12.986;2023-02-15T03:56:31;4.60;99.90
14723;DHT22;7452;55.594;12.986;2023-02-15T03:59:00;4.60;99.90
14723;DHT22;7452;55.594;12.986;2023-02-15T04:01:52;4.70;99.90
14723;DHT22;7452;55.594;12.986;2023-02-15T04:04:28;4.70;99.90
14723;DHT22;7452;55.594;12.986;2023-02-15T04:06:59;4.70;99.90
14723;DHT22;7452;55.594;12.986;2023-02-15T04:09:27;4.70;99.90
14723;DHT22;7452;55.594;12.986;2023-02-15T04:12:11;4.60;99.90
14723;DHT22;7452;55.594;12.986;2023-02-15T04:14:38;4.60;99.90
14723;DHT22;7452;55.594;12.986;2023-02-15T04:17:25;4.70;99.90
14723;DHT22;7452;55.594;12.986;2023-02-15T04:19:52;4.70;99.90
14723;DHT22;7452;55.594;12.986;2023-02-15T04:22:38;4.60;99.90
14723;DHT22;7452;55.594;12.986;2023-02-15T04:25:23;4.60;99.90
14723;DHT22;7452;55.594;12.986;2023-02-15T04:27:53;4.60;99.90
14723;DHT22;7452;55.594;12.986;2023-02-15T04:30:22;4.60;99.90
14723;DHT22;7452;55.594;12.986;2023-02-15T04:32:50;4.70;99.90
14723;DHT22;7452;55.594;12.986;2023-02-15T04:35:17;4.60;99.90
14723;DHT22;7452;55.594;12.986;2023-02-15T04:37:48;4.50;99.90
14723;DHT22;7452;55.594;12.986;2023-02-15T04:40:17;4.60;99.90
14723;DHT22;7452;55.594;12.986;2023-02-15T04:42:47;4.50;99.90
14723;DHT22;7452;55.594;12.986;2023-02-15T04:45:14;4.60;99.90
14723;DHT22;7452;55.594;12.986;2023-02-15T04:47:42;4.60;99.90
14723;DHT22;7452;55.594;12.986;2023-02-15T04:50:11;4.50;99.90
14723;DHT22;7452;55.594;12.986;2023-02-15T04:52:38;4.50;99.90
14723;DHT22;7452;55.594;12.986;2023-02-15T04:55:08;4.50;99.90
14723;DHT22;7452;55.594;12.986;2023-02-15T04:57:36;4.50;99.90
14723;DHT22;7452;55.594;12.986;2023-02-15T05:00:05;4.50;99.90
14723;DHT22;7452;55.594;12.986;2023-02-15T05:02:35;4.50;99.90
14723;DHT22;7452;55.594;12.986;2023-02-15T05:05:02;4.50;99.90
14723;DHT22;7452;55.594;12.986;2023-02-15T05:07:35;4.60;99.90
14723;DHT22;7452;55.594;12.986;2023-02-15T05:10:03;4.60;99.90
14723;DHT22;7452;55.594;12.986;2023-02-15T05:12:33;4.50;99.90
14723;DHT22;7452;55.594;12.986;2023-02-15T05:15:00;4.50;99.90
14723;DHT22;7452;55.594;12.986;2023-02-15T05:17:28;4.60;99.90
14723;DHT22;7452;55.594;12.986;2023-02-15T05:19:55;4.60;99.90
14723;DHT22;7452;55.594;12.986;2023-02-15T05:22:24;4.60;99.90
14723;DHT22;7452;55.594;12.986;2023-02-15T05:24:51;4.60;99.90
14723;DHT22;7452;55.594;12.986;2023-02-15T05:27:41;4.70;99.90
14723;DHT22;7452;55.594;12.986;2023-02-15T05:30:25;4.60;99.90
14723;DHT22;7452;55.594;12.986;2023-02-15T05:33:06;4.50;99.90
14723;DHT22;7452;55.594;12.986;2023-02-15T05:35:33;4.50;99.90
14723;DHT22;7452;55.594;12.986;2023-02-15T05:38:01;4.50;99.90
14723;DHT22;7452;55.594;12.986;2023-02-15T05:40:28;4.50;99.90
14723;DHT22;7452;55.594;12.986;2023-02-15T05:42:58;4.50;99.90
14723;DHT22;7452;55.594;12.986;2023-02-15T05:45:26;4.50;99.90
14723;DHT22;7452;55.594;12.986;2023-02-15T05:47:53;4.50;99.90
14723;DHT22;7452;55.594;12.986;2023-02-15T05:50:20;4.50;99.90
14723;DHT22;7452;55.594;12.986;2023-02-15T05:52:47;4.50;99.90
14723;DHT22;7452;55.594;12.986;2023-02-15T05:55:14;4.50;99.90
14723;DHT22;7452;55.594;12.986;2023-02-15T05:57:42;4.50;99.90
14723;DHT22;7452;55.594;12.986;2023-02-15T06:00:12;4.50;99.90
14723;DHT22;7452;55.594;12.986;2023-02-15T06:02:40;4.60;99.90
14723;DHT22;7452;55.594;12.986;2023-02-15T06:05:08;4.60;99.90
14723;DHT22;7452;55.594;12.986;2023-02-15T06:07:36;4.60;99.90
14723;DHT22;7452;55.594;12.986;2023-02-15T06:10:06;4.60;99.90
14723;DHT22;7452;55.594;12.986;2023-02-15T06:12:34;4.60;99.90
14723;DHT22;7452;55.594;12.986;2023-02-15T06:15:01;4.60;99.90
14723;DHT22;7452;55.594;12.986;2023-02-15T06:17:34;4.60;99.90
14723;DHT22;7452;55.594;12.986;2023-02-15T06:20:02;4.60;99.90
14723;DHT22;7452;55.594;12.986;2023-02-15T06:22:29;4.60;99.90
14723;DHT22;7452;55.594;12.986;2023-02-15T06:24:57;4.70;99.90
14723;DHT22;7452;55.594;12.986;2023-02-15T06:27:24;4.70;99.90
14723;DHT22;7452;55.594;12.986;2023-02-15T06:29:51;4.70;99.90
14723;DHT22;7452;55.594;12.986;2023-02-15T06:32:18;4.70;99.90
14723;DHT22;7452;55.594;12.986;2023-02-15T06:34:46;4.80;99.90
14723;DHT22;7452;55.594;12.986;2023-02-15T06:37:14;4.70;99.90
14723;DHT22;7452;55.594;12.986;2023-02-15T06:39:42;4.70;99.90
14723;DHT22;7452;55.594;12.986;2023-02-15T06:42:09;4.70;99.90
14723;DHT22;7452;55.594;12.986;2023-02-15T06:44:36;4.70;99.90
14723;DHT22;7452;55.594;12.986;2023-02-15T06:47:04;4.70;99.90
14723;DHT22;7452;55.594;12.986;2023-02-15T06:49:30;4.70;99.90
14723;DHT22;7452;55.594;12.986;2023-02-15T06:52:00;4.70;99.90
14723;DHT22;7452;55.594;12.986;2023-02-15T06:54:27;4.70;99.90
14723;DHT22;7452;55.594;12.986;2023-02-15T06:56:58;4.70;99.90
14723;DHT22;7452;55.594;12.986;2023-02-15T06:59:25;4.70;99.90
14723;DHT22;7452;55.594;12.986;2023-02-15T07:01:52;4.70;99.90
14723;DHT22;7452;55.594;12.986;2023-02-15T07:04:20;4.70;99.90
14723;DHT22;7452;55.594;12.986;2023-02-15T07:06:47;4.60;99.90
14723;DHT22;7452;55.594;12.986;2023-02-15T07:09:16;4.70;99.90
14723;DHT22;7452;55.594;12.986;2023-02-15T07:11:44;4.70;99.90
14723;DHT22;7452;55.594;12.986;2023-02-15T07:14:40;4.60;99.90
14723;DHT22;7452;55.594;12.986;2023-02-15T07:17:08;4.60;99.90
14723;DHT22;7452;55.594;12.986;2023-02-15T07:19:37;4.70;99.90
14723;DHT22;7452;55.594;12.986;2023-02-15T07:22:05;4.70;99.90
14723;DHT22;7452;55.594;12.986;2023-02-15T07:24:34;4.70;99.90
14723;DHT22;7452;55.594;12.986;2023-02-15T07:27:01;4.70;99.90
14723;DHT22;7452;55.594;12.986;2023-02-15T07:29:27;4.80;99.90
14723;DHT22;7452;55.594;12.986;2023-02-15T07:31:55;4.70;99.90
14723;DHT22;7452;55.594;12.986;2023-02-15T07:34:22;4.70;99.90
14723;DHT22;7452;55.594;12.986;2023-02-15T07:36:50;4.60;99.90
14723;DHT22;7452;55.594;12.986;2023-02-15T07:39:19;4.70;99.90
14723;DHT22;7452;55.594;12.986;2023-02-15T07:41:48;4.70;99.90
14723;DHT22;7452;55.594;12.986;2023-02-15T07:44:15;4.70;99.90
14723;DHT22;7452;55.594;12.986;2023-02-15T07:46:42;4.60;99.90
14723;DHT22;7452;55.594;12.986;2023-02-15T07:49:10;4.60;99.90
14723;DHT22;7452;55.594;12.986;2023-02-15T07:51:37;4.70;99.90
14723;DHT22;7452;55.594;12.986;2023-02-15T07:54:06;4.70;99.90
14723;DHT22;7452;55.594;12.986;2023-02-15T07:56:34;4.60;99.90
14723;DHT22;7452;55.594;12.986;2023-02-15T07:59:03;4.60;99.90
14723;DHT22;7452;55.594;12.986;2023-02-15T08:01:32;4.70;99.90
14723;DHT22;7452;55.594;12.986;2023-02-15T08:04:01;4.80;99.90
14723;DHT22;7452;55.594;12.986;2023-02-15T08:06:30;4.70;99.90
14723;DHT22;7452;55.594;12.986;2023-02-15T08:08:57;4.80;99.90
14723;DHT22;7452;55.594;12.986;2023-02-15T08:11:30;4.80;99.90
14723;DHT22;7452;55.594;12.986;2023-02-15T08:14:10;4.80;99.90
14723;DHT22;7452;55.594;12.986;2023-02-15T08:16:39;4.80;99.90
14723;DHT22;7452;55.594;12.986;2023-02-15T08:19:08;4.80;99.90
14723;DHT22;7452;55.594;12.986;2023-02-15T08:21:36;4.80;99.90
14723;DHT22;7452;55.594;12.986;2023-02-15T08:24:07;4.80;99.90
14723;DHT22;7452;55.594;12.986;2023-02-15T08:26:38;4.90;99.90
14723;DHT22;7452;55.594;12.986;2023-02-15T08:29:06;4.90;99.90
14723;DHT22;7452;55.594;12.986;2023-02-15T08:31:35;4.90;99.90
14723;DHT22;7452;55.594;12.986;2023-02-15T08:34:03;5.00;99.90
14723;DHT22;7452;55.594;12.986;2023-02-15T08:36:31;5.00;99.90
14723;DHT22;7452;55.594;12.986;2023-02-15T08:39:02;5.10;99.90
14723;DHT22;7452;55.594;12.986;2023-02-15T08:41:31;5.10;99.90
14723;DHT22;7452;55.594;12.986;2023-02-15T08:44:01;5.10;99.90
14723;DHT22;7452;55.594;12.986;2023-02-15T08:46:29;5.10;99.90
14723;DHT22;7452;55.594;12.986;2023-02-15T08:48:59;5.10;99.90
14723;DHT22;7452;55.594;12.986;2023-02-15T08:51:28;5.10;99.90
14723;DHT22;7452;55.594;12.986;2023-02-15T08:53:57;5.10;99.90
14723;DHT22;7452;55.594;12.986;2023-02-15T08:56:28;5.00;99.90
14723;DHT22;7452;55.594;12.986;2023-02-15T08:58:56;5.10;99.90
14723;DHT22;7452;55.594;12.986;2023-02-15T09:01:24;5.00;99.90
14723;DHT22;7452;55.594;12.986;2023-02-15T09:03:55;5.00;99.90
14723;DHT22;7452;55.594;12.986;2023-02-15T09:06:24;5.00;99.90
14723;DHT22;7452;55.594;12.986;2023-02-15T09:08:53;5.00;99.90
14723;DHT22;7452;55.594;12.986;2023-02-15T09:11:22;5.00;99.90
14723;DHT22;7452;55.594;12.986;2023-02-15T09:13:55;5.10;99.90
14723;DHT22;7452;55.594;12.986;2023-02-15T09:16:24;5.10;99.90
14723;DHT22;7452;55.594;12.986;2023-02-15T09:18:54;5.10;99.90
14723;DHT22;7452;55.594;12.986;2023-02-15T09:21:25;5.10;99.90
14723;DHT22;7452;55.594;12.986;2023-02-15T09:23:56;5.10;99.90
14723;DHT22;7452;55.594;12.986;2023-02-15T09:26:25;5.20;99.90
14723;DHT22;7452;55.594;12.986;2023-02-15T09:28:53;5.30;99.90
14723;DHT22;7452;55.594;12.986;2023-02-15T09:31:23;5.20;99.90
14723;DHT22;7452;55.594;12.986;2023-02-15T09:33:52;5.30;99.90
14723;DHT22;7452;55.594;12.986;2023-02-15T09:36:22;5.30;99.90
14723;DHT22;7452;55.594;12.986;2023-02-15T09:38:56;5.20;99.90
14723;DHT22;7452;55.594;12.986;2023-02-15T09:41:35;5.30;99.90
14723;DHT22;7452;55.594;12.986;2023-02-15T09:44:13;5.30;99.90
14723;DHT22;7452;55.594;12.986;2023-02-15T09:47:05;5.10;99.90
14723;DHT22;7452;55.594;12.986;2023-02-15T09:49:45;5.10;99.90
14723;DHT22;7452;55.594;12.986;2023-02-15T09:52:27;5.20;99.90
14723;DHT22;7452;55.594;12.986;2023-02-15T09:55:23;5.20;99.90
14723;DHT22;7452;55.594;12.986;2023-02-15T09:57:57;5.30;99.90
14723;DHT22;7452;55.594;12.986;2023-02-15T10:00:38;5.30;99.90
14723;DHT22;7452;55.594;12.986;2023-02-15T10:03:17;5.40;99.90
14723;DHT22;7452;55.594;12.986;2023-02-15T10:06:13;5.40;99.90
14723;DHT22;7452;55.594;12.986;2023-02-15T10:09:27;5.30;99.90
14723;DHT22;7452;55.594;12.986;2023-02-15T10:12:15;5.20;99.90
14723;DHT22;7452;55.594;12.986;2023-02-15T10:14:58;5.30;99.90
14723;DHT22;7452;55.594;12.986;2023-02-15T10:17:45;5.40;99.90
14723;DHT22;7452;55.594;12.986;2023-02-15T10:20:23;5.50;99.90
14723;DHT22;7452;55.594;12.986;2023-02-15T10:23:06;5.40;99.90
14723;DHT22;7452;55.594;12.986;2023-02-15T10:25:41;5.40;99.90
14723;DHT22;7452;55.594;12.986;2023-02-15T10:28:16;5.40;99.90
14723;DHT22;7452;55.594;12.986;2023-02-15T10:30:47;5.50;99.90
14723;DHT22;7452;55.594;12.986;2023-02-15T10:33:38;5.50;99.90
14723;DHT22;7452;55.594;12.986;2023-02-15T10:36:16;5.40;99.90
14723;DHT22;7452;55.594;12.986;2023-02-15T10:38:52;5.50;99.90
14723;DHT22;7452;55.594;12.986;2023-02-15T10:41:34;5.40;99.90
14723;DHT22;7452;55.594;12.986;2023-02-15T10:44:23;5.40;99.90
14723;DHT22;7452;55.594;12.986;2023-02-15T10:50:13;5.70;99.90
14723;DHT22;7452;55.594;12.986;2023-02-15T10:52:55;5.60;99.90
14723;DHT22;7452;55.594;12.986;2023-02-15T10:55:36;5.60;99.90
14723;DHT22;7452;55.594;12.986;2023-02-15T10:58:17;5.50;99.90
14723;DHT22;7452;55.594;12.986;2023-02-15T11:00:54;5.60;99.90
14723;DHT22;7452;55.594;12.986;2023-02-15T11:03:46;5.50;99.90
14723;DHT22;7452;55.594;12.986;2023-02-15T11:06:17;5.60;99.90
14723;DHT22;7452;55.594;12.986;2023-02-15T11:08:47;5.60;99.90
14723;DHT22;7452;55.594;12.986;2023-02-15T11:11:22;5.50;99.90
14723;DHT22;7452;55.594;12.986;2023-02-15T11:13:53;5.40;99.90
14723;DHT22;7452;55.594;12.986;2023-02-15T11:16:27;5.10;99.90
14723;DHT22;7452;55.594;12.986;2023-02-15T11:18:59;5.10;99.90
14723;DHT22;7452;55.594;12.986;2023-02-15T11:21:31;5.10;99.90
14723;DHT22;7452;55.594;12.986;2023-02-15T11:24:09;5.20;99.90
14723;DHT22;7452;55.594;12.986;2023-02-15T11:26:39;5.10;99.90
14723;DHT22;7452;55.594;12.986;2023-02-15T11:29:13;5.10;99.90
14723;DHT22;7452;55.594;12.986;2023-02-15T11:31:49;5.10;99.90
14723;DHT22;7452;55.594;12.986;2023-02-15T11:34:21;5.20;99.90
14723;DHT22;7452;55.594;12.986;2023-02-15T11:36:52;5.20;99.90
14723;DHT22;7452;55.594;12.986;2023-02-15T11:39:22;5.30;99.90
14723;DHT22;7452;55.594;12.986;2023-02-15T11:41:57;5.40;99.90
14723;DHT22;7452;55.594;12.986;2023-02-15T11:44:29;5.40;99.90
14723;DHT22;7452;55.594;12.986;2023-02-15T11:47:03;5.30;99.90
14723;DHT22;7452;55.594;12.986;2023-02-15T11:49:31;5.30;99.90
14723;DHT22;7452;55.594;12.986;2023-02-15T11:52:01;5.30;99.90
14723;DHT22;7452;55.594;12.986;2023-02-15T11:54:31;5.40;99.90
14723;DHT22;7452;55.594;12.986;2023-02-15T11:57:03;5.70;99.90
14723;DHT22;7452;55.594;12.986;2023-02-15T11:59:37;5.60;99.90
14723;DHT22;7452;55.594;12.986;2023-02-15T12:02:16;5.70;99.90
14723;DHT22;7452;55.594;12.986;2023-02-15T12:04:50;5.70;99.90
14723;DHT22;7452;55.594;12.986;2023-02-15T12:07:23;5.80;99.90
14723;DHT22;7452;55.594;12.986;2023-02-15T12:09:58;5.90;99.90
14723;DHT22;7452;55.594;12.986;2023-02-15T12:12:29;6.00;99.90
14723;DHT22;7452;55.594;12.986;2023-02-15T12:14:57;6.00;99.90
14723;DHT22;7452;55.594;12.986;2023-02-15T12:17:29;6.10;99.90
14723;DHT22;7452;55.594;12.986;2023-02-15T12:19:58;5.90;99.90
14723;DHT22;7452;55.594;12.986;2023-02-15T12:22:29;6.00;99.90
14723;DHT22;7452;55.594;12.986;2023-02-15T12:24:59;6.00;99.90
14723;DHT22;7452;55.594;12.986;2023-02-15T12:27:28;6.10;99.90
14723;DHT22;7452;55.594;12.986;2023-02-15T12:29:58;6.10;99.90
14723;DHT22;7452;55.594;12.986;2023-02-15T12:32:31;6.20;99.90
14723;DHT22;7452;55.594;12.986;2023-02-15T12:35:01;6.10;99.90
14723;DHT22;7452;55.594;12.986;2023-02-15T12:37:33;6.00;99.90
14723;DHT22;7452;55.594;12.986;2023-02-15T12:40:11;5.90;99.90
14723;DHT22;7452;55.594;12.986;2023-02-15T12:42:45;5.80;99.90
14723;DHT22;7452;55.594;12.986;2023-02-15T12:45:23;5.70;99.90
14723;DHT22;7452;55.594;12.986;2023-02-15T12:48:13;5.70;99.90
14723;DHT22;7452;55.594;12.986;2023-02-15T12:50:43;5.60;99.90
14723;DHT22;7452;55.594;12.986;2023-02-15T12:53:21;5.50;99.90
14723;DHT22;7452;55.594;12.986;2023-02-15T12:55:51;5.50;99.90
14723;DHT22;7452;55.594;12.986;2023-02-15T12:58:23;5.60;99.90
14723;DHT22;7452;55.594;12.986;2023-02-15T13:01:03;5.50;99.90
14723;DHT22;7452;55.594;12.986;2023-02-15T13:03:36;5.60;99.90
14723;DHT22;7452;55.594;12.986;2023-02-15T13:06:05;5.70;99.90
14723;DHT22;7452;55.594;12.986;2023-02-15T13:08:36;5.70;99.90
14723;DHT22;7452;55.594;12.986;2023-02-15T13:11:08;5.60;99.90
14723;DHT22;7452;55.594;12.986;2023-02-15T13:13:47;5.50;99.90
14723;DHT22;7452;55.594;12.986;2023-02-15T13:16:27;5.60;99.90
14723;DHT22;7452;55.594;12.986;2023-02-15T13:19:04;5.60;99.90
14723;DHT22;7452;55.594;12.986;2023-02-15T13:21:36;5.60;99.90
14723;DHT22;7452;55.594;12.986;2023-02-15T13:24:06;5.50;99.90
14723;DHT22;7452;55.594;12.986;2023-02-15T13:26:35;5.50;99.90
14723;DHT22;7452;55.594;12.986;2023-02-15T13:29:06;5.50;99.90
14723;DHT22;7452;55.594;12.986;2023-02-15T13:31:35;5.50;99.90
14723;DHT22;7452;55.594;12.986;2023-02-15T13:34:14;5.50;99.90
14723;DHT22;7452;55.594;12.986;2023-02-15T13:36:49;5.50;99.90
14723;DHT22;7452;55.594;12.986;2023-02-15T13:39:25;5.50;99.90
14723;DHT22;7452;55.594;12.986;2023-02-15T13:42:00;5.30;99.90
14723;DHT22;7452;55.594;12.986;2023-02-15T13:44:58;5.30;99.90
14723;DHT22;7452;55.594;12.986;2023-02-15T13:47:32;5.30;99.90
14723;DHT22;7452;55.594;12.986;2023-02-15T13:50:28;5.30;99.90
14723;DHT22;7452;55.594;12.986;2023-02-15T13:53:18;5.30;99.90
14723;DHT22;7452;55.594;12.986;2023-02-15T13:55:51;5.40;99.90
14723;DHT22;7452;55.594;12.986;2023-02-15T13:58:48;5.30;99.90
14723;DHT22;7452;55.594;12.986;2023-02-15T14:01:21;5.20;99.90
14723;DHT22;7452;55.594;12.986;2023-02-15T14:04:31;5.10;99.90
14723;DHT22;7452;55.594;12.986;2023-02-15T14:07:28;5.10;99.90
14723;DHT22;7452;55.594;12.986;2023-02-15T14:10:09;5.10;99.90
14723;DHT22;7452;55.594;12.986;2023-02-15T14:12:54;5.10;99.90
14723;DHT22;7452;55.594;12.986;2023-02-15T14:15:32;4.90;99.90
14723;DHT22;7452;55.594;12.986;2023-02-15T14:18:12;5.10;99.90
14723;DHT22;7452;55.594;12.986;2023-02-15T14:20:47;4.80;99.90
14723;DHT22;7452;55.594;12.986;2023-02-15T14:23:27;4.70;99.90
14723;DHT22;7452;55.594;12.986;2023-02-15T14:26:02;4.70;99.90
14723;DHT22;7452;55.594;12.986;2023-02-15T14:28:37;4.80;99.90
14723;DHT22;7452;55.594;12.986;2023-02-15T14:31:13;4.90;99.90
14723;DHT22;7452;55.594;12.986;2023-02-15T14:33:45;5.00;99.90
14723;DHT22;7452;55.594;12.986;2023-02-15T14:36:16;5.00;99.90
14723;DHT22;7452;55.594;12.986;2023-02-15T14:38:56;5.00;99.90
14723;DHT22;7452;55.594;12.986;2023-02-15T14:41:35;5.00;99.90
14723;DHT22;7452;55.594;12.986;2023-02-15T14:44:08;4.90;99.90
14723;DHT22;7452;55.594;12.986;2023-02-15T14:46:42;4.90;99.90
14723;DHT22;7452;55.594;12.986;2023-02-15T14:49:15;4.80;99.90
14723;DHT22;7452;55.594;12.986;2023-02-15T14:51:57;4.70;99.90
14723;DHT22;7452;55.594;12.986;2023-02-15T14:54:58;4.70;99.90
14723;DHT22;7452;55.594;12.986;2023-02-15T14:57:33;4.60;99.90
14723;DHT22;7452;55.594;12.986;2023-02-15T15:00:03;4.60;99.90
14723;DHT22;7452;55.594;12.986;2023-02-15T15:02:45;4.50;99.90
14723;DHT22;7452;55.594;12.986;2023-02-15T15:05:18;4.60;99.90
14723;DHT22;7452;55.594;12.986;2023-02-15T15:07:48;4.60;99.90
14723;DHT22;7452;55.594;12.986;2023-02-15T15:10:44;4.60;99.90
14723;DHT22;7452;55.594;12.986;2023-02-15T15:13:38;4.50;99.90
14723;DHT22;7452;55.594;12.986;2023-02-15T15:16:50;4.30;99.90
14723;DHT22;7452;55.594;12.986;2023-02-15T15:22:30;4.20;99.90
14723;DHT22;7452;55.594;12.986;2023-02-15T15:24:58;4.20;99.90
14723;DHT22;7452;55.594;12.986;2023-02-15T15:27:54;4.00;99.90
14723;DHT22;7452;55.594;12.986;2023-02-15T15:33:55;3.90;99.90
14723;DHT22;7452;55.594;12.986;2023-02-15T15:46:13;3.60;99.90
14723;DHT22;7452;55.594;12.986;2023-02-15T15:48:42;3.60;99.90
14723;DHT22;7452;55.594;12.986;2023-02-15T15:51:14;3.60;99.90
14723;DHT22;7452;55.594;12.986;2023-02-15T15:53:46;3.50;99.90
14723;DHT22;7452;55.594;12.986;2023-02-15T15:56:19;3.50;99.90
14723;DHT22;7452;55.594;12.986;2023-02-15T15:58:55;3.50;99.90
14723;DHT22;7452;55.594;12.986;2023-02-15T16:01:26;3.40;99.90
14723;DHT22;7452;55.594;12.986;2023-02-15T16:04:05;3.40;99.90
14723;DHT22;7452;55.594;12.986;2023-02-15T16:06:35;3.50;99.90
14723;DHT22;7452;55.594;12.986;2023-02-15T16:09:17;3.40;99.90
14723;DHT22;7452;55.594;12.986;2023-02-15T16:11:46;3.50;99.90
14723;DHT22;7452;55.594;12.986;2023-02-15T16:14:18;3.50;99.90
14723;DHT22;7452;55.594;12.986;2023-02-15T16:16:51;3.60;99.90
14723;DHT22;7452;55.594;12.986;2023-02-15T16:19:23;3.60;99.90
14723;DHT22;7452;55.594;12.986;2023-02-15T16:21:51;3.60;99.90
14723;DHT22;7452;55.594;12.986;2023-02-15T16:24:25;3.40;99.90
14723;DHT22;7452;55.594;12.986;2023-02-15T16:27:18;3.50;99.90
14723;DHT22;7452;55.594;12.986;2023-02-15T16:29:47;3.30;99.90
14723;DHT22;7452;55.594;12.986;2023-02-15T16:32:18;3.20;99.90
14723;DHT22;7452;55.594;12.986;2023-02-15T16:34:53;3.20;99.90
14723;DHT22;7452;55.594;12.986;2023-02-15T16:37:22;3.20;99.90
14723;DHT22;7452;55.594;12.986;2023-02-15T16:39:54;3.20;99.90
14723;DHT22;7452;55.594;12.986;2023-02-15T16:42:21;3.20;99.90
14723;DHT22;7452;55.594;12.986;2023-02-15T16:44:54;3.20;99.90
14723;DHT22;7452;55.594;12.986;2023-02-15T16:47:29;3.20;99.90